sensor_id;sensor_type;location;lat;lon;timestamp;pressure;altitude;pressure_sealevel;temperature;humidity
56658;BME280;42530;52.240;19.354;2022-09-17T00:01:25;52957.19;;;-144.69;45.37
56658;BME280;42530;52.240;19.354;2022-09-17T00:03:54;52957.19;;;-144.69;45.01
56658;BME280;42530;52.240;19.354;2022-09-17T00:06:20;52973.81;;;-144.69;45.82
56658;BME280;42530;52.240;19.354;2022-09-17T00:08:46;52992.53;;;-144.69;45.32
56658;BME280;42530;52.240;19.354;2022-09-17T00:11:15;52982.16;;;-144.69;45.14
56658;BME280;42530;52.240;19.354;2022-09-17T00:13:42;52923.91;;;-144.69;45.87
56658;BME280;42530;52.240;19.354;2022-09-17T00:16:08;52961.34;;;-144.69;45.42
56658;BME280;42530;52.240;19.354;2022-09-17T00:18:34;53000.88;;;-144.69;45.00
56658;BME280;42530;52.240;19.354;2022-09-17T00:21:02;52959.25;;;-144.69;44.77
56658;BME280;42530;52.240;19.354;2022-09-17T00:23:28;53002.94;;;-144.69;44.75
56658;BME280;42530;52.240;19.354;2022-09-17T00:25:54;52938.44;;;-144.69;44.87
56658;BME280;42530;52.240;19.354;2022-09-17T00:28:19;52982.16;;;-144.69;45.20
56658;BME280;42530;52.240;19.354;2022-09-17T00:30:45;52967.59;;;-144.69;45.14
56658;BME280;42530;52.240;19.354;2022-09-17T00:33:13;52984.22;;;-144.69;44.48
56658;BME280;42530;52.240;19.354;2022-09-17T00:35:39;52967.59;;;-144.69;44.89
56658;BME280;42530;52.240;19.354;2022-09-17T00:38:04;52990.47;;;-144.69;44.39
56658;BME280;42530;52.240;19.354;2022-09-17T00:40:30;52988.38;;;-144.69;44.11
56658;BME280;42530;52.240;19.354;2022-09-17T00:42:56;53011.28;;;-144.69;44.71
56658;BME280;42530;52.240;19.354;2022-09-17T00:45:22;52990.47;;;-144.69;44.03
56658;BME280;42530;52.240;19.354;2022-09-17T00:47:57;52982.16;;;-144.69;44.09
56658;BME280;42530;52.240;19.354;2022-09-17T00:50:34;52977.97;;;-144.69;44.10
56658;BME280;42530;52.240;19.354;2022-09-17T00:53:04;53002.94;;;-144.69;44.57
56658;BME280;42530;52.240;19.354;2022-09-17T00:55:35;52969.66;;;-144.69;44.99
56658;BME280;42530;52.240;19.354;2022-09-17T00:58:05;52955.09;;;-144.69;44.19
56658;BME280;42530;52.240;19.354;2022-09-17T01:00:31;52977.97;;;-144.69;43.95
56658;BME280;42530;52.240;19.354;2022-09-17T01:02:57;52971.75;;;-144.69;44.93
56658;BME280;42530;52.240;19.354;2022-09-17T01:05:30;52959.25;;;-144.69;45.21
56658;BME280;42530;52.240;19.354;2022-09-17T01:08:26;52984.22;;;-144.69;45.15
56658;BME280;42530;52.240;19.354;2022-09-17T01:16:45;52959.25;;;-144.69;44.78
56658;BME280;42530;52.240;19.354;2022-09-17T01:27:45;52975.91;;;-144.69;45.83
56658;BME280;42530;52.240;19.354;2022-09-17T01:33:13;52969.66;;;-144.69;45.86
56658;BME280;42530;52.240;19.354;2022-09-17T01:38:42;52965.50;;;-144.69;46.08
56658;BME280;42530;52.240;19.354;2022-09-17T01:41:31;53011.28;;;-144.69;46.50
56658;BME280;42530;52.240;19.354;2022-09-17T01:44:09;52998.78;;;-144.69;46.64
56658;BME280;42530;52.240;19.354;2022-09-17T01:46:56;52957.19;;;-144.69;46.51
56658;BME280;42530;52.240;19.354;2022-09-17T01:49:26;52969.66;;;-144.69;46.53
56658;BME280;42530;52.240;19.354;2022-09-17T01:51:54;52977.97;;;-144.69;46.36
56658;BME280;42530;52.240;19.354;2022-09-17T01:57:07;52986.31;;;-144.69;46.80
56658;BME280;42530;52.240;19.354;2022-09-17T01:59:37;52973.81;;;-144.69;46.94
56658;BME280;42530;52.240;19.354;2022-09-17T02:02:20;52986.31;;;-144.69;46.94
56658;BME280;42530;52.240;19.354;2022-09-17T02:04:55;52975.91;;;-144.69;46.94
56658;BME280;42530;52.240;19.354;2022-09-17T02:07:23;53019.59;;;-144.69;47.27
56658;BME280;42530;52.240;19.354;2022-09-17T02:09:59;52984.22;;;-144.69;47.18
56658;BME280;42530;52.240;19.354;2022-09-17T02:12:35;52961.34;;;-144.69;46.44
56658;BME280;42530;52.240;19.354;2022-09-17T02:15:09;52988.38;;;-144.69;46.33
56658;BME280;42530;52.240;19.354;2022-09-17T02:17:57;53002.94;;;-144.69;46.71
56658;BME280;42530;52.240;19.354;2022-09-17T02:20:29;53015.44;;;-144.69;47.56
56658;BME280;42530;52.240;19.354;2022-09-17T02:23:07;52961.34;;;-144.69;46.97
56658;BME280;42530;52.240;19.354;2022-09-17T02:26:01;52990.47;;;-144.69;47.26
56658;BME280;42530;52.240;19.354;2022-09-17T02:28:41;53000.88;;;-144.69;46.77
56658;BME280;42530;52.240;19.354;2022-09-17T02:31:08;52994.63;;;-144.69;46.95
56658;BME280;42530;52.240;19.354;2022-09-17T02:33:34;52984.22;;;-144.69;47.66
56658;BME280;42530;52.240;19.354;2022-09-17T02:36:02;52982.16;;;-144.69;46.77
56658;BME280;42530;52.240;19.354;2022-09-17T02:38:29;52998.78;;;-144.69;47.69
56658;BME280;42530;52.240;19.354;2022-09-17T02:41:17;52998.78;;;-144.69;46.65
56658;BME280;42530;52.240;19.354;2022-09-17T02:49:40;52980.06;;;-144.69;47.58
56658;BME280;42530;52.240;19.354;2022-09-17T02:55:01;52980.06;;;-144.69;47.20
56658;BME280;42530;52.240;19.354;2022-09-17T02:57:50;52965.50;;;-144.69;47.49
56658;BME280;42530;52.240;19.354;2022-09-17T03:00:20;52994.63;;;-144.69;47.26
56658;BME280;42530;52.240;19.354;2022-09-17T03:02:57;52973.81;;;-144.69;46.85
56658;BME280;42530;52.240;19.354;2022-09-17T03:05:24;52996.72;;;-144.69;47.37
56658;BME280;42530;52.240;19.354;2022-09-17T03:07:54;52982.16;;;-144.69;47.07
56658;BME280;42530;52.240;19.354;2022-09-17T03:10:21;52942.63;;;-144.69;46.60
56658;BME280;42530;52.240;19.354;2022-09-17T03:12:47;53019.59;;;-144.69;47.23
56658;BME280;42530;52.240;19.354;2022-09-17T03:15:12;53002.94;;;-144.69;47.65
56658;BME280;42530;52.240;19.354;2022-09-17T03:17:38;52982.16;;;-144.69;47.22
56658;BME280;42530;52.240;19.354;2022-09-17T03:20:04;52994.63;;;-144.69;48.21
56658;BME280;42530;52.240;19.354;2022-09-17T03:22:29;52965.50;;;-144.69;47.83
56658;BME280;42530;52.240;19.354;2022-09-17T03:24:55;52973.81;;;-144.69;47.13
56658;BME280;42530;52.240;19.354;2022-09-17T03:27:20;52994.63;;;-144.69;47.70
56658;BME280;42530;52.240;19.354;2022-09-17T03:29:46;53011.28;;;-144.69;47.64
56658;BME280;42530;52.240;19.354;2022-09-17T03:32:11;52988.38;;;-144.69;47.72
56658;BME280;42530;52.240;19.354;2022-09-17T03:34:37;52961.34;;;-144.69;47.83
56658;BME280;42530;52.240;19.354;2022-09-17T03:37:02;52965.50;;;-144.69;47.68
56658;BME280;42530;52.240;19.354;2022-09-17T03:39:28;53000.88;;;-144.69;48.15
56658;BME280;42530;52.240;19.354;2022-09-17T03:41:54;52982.16;;;-144.69;47.86
56658;BME280;42530;52.240;19.354;2022-09-17T03:44:19;52969.66;;;-144.69;47.55
56658;BME280;42530;52.240;19.354;2022-09-17T03:46:47;52986.31;;;-144.69;47.49
56658;BME280;42530;52.240;19.354;2022-09-17T03:49:12;52963.41;;;-144.69;46.74
56658;BME280;42530;52.240;19.354;2022-09-17T03:51:38;53013.34;;;-144.69;47.42
56658;BME280;42530;52.240;19.354;2022-09-17T03:54:03;52998.78;;;-144.69;47.85
56658;BME280;42530;52.240;19.354;2022-09-17T03:56:29;53040.41;;;-144.69;46.84
56658;BME280;42530;52.240;19.354;2022-09-17T03:58:58;52953.00;;;-144.69;46.18
56658;BME280;42530;52.240;19.354;2022-09-17T04:01:25;52973.81;;;-144.69;46.85
56658;BME280;42530;52.240;19.354;2022-09-17T04:03:52;52965.50;;;-144.69;46.24
56658;BME280;42530;52.240;19.354;2022-09-17T04:06:18;52992.53;;;-144.69;46.35
56658;BME280;42530;52.240;19.354;2022-09-17T04:08:43;52992.53;;;-144.69;46.65
56658;BME280;42530;52.240;19.354;2022-09-17T04:11:09;52988.38;;;-144.69;46.22
56658;BME280;42530;52.240;19.354;2022-09-17T04:13:35;52998.78;;;-144.69;46.75
56658;BME280;42530;52.240;19.354;2022-09-17T04:16:01;53015.44;;;-144.69;47.39
56658;BME280;42530;52.240;19.354;2022-09-17T04:18:27;52967.59;;;-144.69;47.04
56658;BME280;42530;52.240;19.354;2022-09-17T04:20:52;52994.63;;;-144.69;46.95
56658;BME280;42530;52.240;19.354;2022-09-17T04:23:18;53007.09;;;-144.69;47.16
56658;BME280;42530;52.240;19.354;2022-09-17T04:25:43;53015.44;;;-144.69;46.90
56658;BME280;42530;52.240;19.354;2022-09-17T04:28:09;52998.78;;;-144.69;46.53
56658;BME280;42530;52.240;19.354;2022-09-17T04:30:35;52982.16;;;-144.69;46.52
56658;BME280;42530;52.240;19.354;2022-09-17T04:33:00;52982.16;;;-144.69;46.99
56658;BME280;42530;52.240;19.354;2022-09-17T04:35:26;52988.38;;;-144.69;46.03
56658;BME280;42530;52.240;19.354;2022-09-17T04:37:55;52977.97;;;-144.69;46.40
56658;BME280;42530;52.240;19.354;2022-09-17T04:40:22;52998.78;;;-144.69;46.33
56658;BME280;42530;52.240;19.354;2022-09-17T04:42:51;52969.66;;;-144.69;46.18
56658;BME280;42530;52.240;19.354;2022-09-17T04:45:17;53002.94;;;-144.69;46.52
56658;BME280;42530;52.240;19.354;2022-09-17T04:47:42;52980.06;;;-144.69;46.65
56658;BME280;42530;52.240;19.354;2022-09-17T04:50:08;53007.09;;;-144.69;46.42
56658;BME280;42530;52.240;19.354;2022-09-17T04:52:34;52986.31;;;-144.69;46.21
56658;BME280;42530;52.240;19.354;2022-09-17T04:54:59;53011.28;;;-144.69;46.39
56658;BME280;42530;52.240;19.354;2022-09-17T04:57:25;53011.28;;;-144.69;46.26
56658;BME280;42530;52.240;19.354;2022-09-17T04:59:52;52940.53;;;-144.69;46.12
56658;BME280;42530;52.240;19.354;2022-09-17T05:02:17;52986.31;;;-144.69;45.30
56658;BME280;42530;52.240;19.354;2022-09-17T05:04:43;52973.81;;;-144.69;45.73
56658;BME280;42530;52.240;19.354;2022-09-17T05:07:08;52998.78;;;-144.69;45.24
56658;BME280;42530;52.240;19.354;2022-09-17T05:09:34;53009.19;;;-144.69;45.55
56658;BME280;42530;52.240;19.354;2022-09-17T05:11:59;53015.44;;;-144.69;45.32
56658;BME280;42530;52.240;19.354;2022-09-17T05:14:25;52984.22;;;-144.69;45.42
56658;BME280;42530;52.240;19.354;2022-09-17T05:16:50;53005.03;;;-144.69;45.83
56658;BME280;42530;52.240;19.354;2022-09-17T05:19:16;53013.34;;;-144.69;45.46
56658;BME280;42530;52.240;19.354;2022-09-17T05:21:41;52994.63;;;-144.69;45.79
56658;BME280;42530;52.240;19.354;2022-09-17T05:24:07;53005.03;;;-144.69;45.89
56658;BME280;42530;52.240;19.354;2022-09-17T05:26:33;52982.16;;;-144.69;45.15
56658;BME280;42530;52.240;19.354;2022-09-17T05:28:58;52977.97;;;-144.69;46.20
56658;BME280;42530;52.240;19.354;2022-09-17T05:31:24;53013.34;;;-144.69;46.29
56658;BME280;42530;52.240;19.354;2022-09-17T05:33:49;53019.59;;;-144.69;46.71
56658;BME280;42530;52.240;19.354;2022-09-17T05:36:15;52975.91;;;-144.69;46.50
56658;BME280;42530;52.240;19.354;2022-09-17T05:38:40;52977.97;;;-144.69;46.04
56658;BME280;42530;52.240;19.354;2022-09-17T05:41:06;53005.03;;;-144.69;47.01
56658;BME280;42530;52.240;19.354;2022-09-17T05:43:32;52988.38;;;-144.69;47.42
56658;BME280;42530;52.240;19.354;2022-09-17T05:46:03;52998.78;;;-144.69;46.67
56658;BME280;42530;52.240;19.354;2022-09-17T05:48:29;52982.16;;;-144.69;47.13
56658;BME280;42530;52.240;19.354;2022-09-17T05:50:54;53019.59;;;-144.69;46.67
56658;BME280;42530;52.240;19.354;2022-09-17T05:53:20;53007.09;;;-144.69;46.11
56658;BME280;42530;52.240;19.354;2022-09-17T05:55:46;52998.78;;;-144.69;45.98
56658;BME280;42530;52.240;19.354;2022-09-17T05:58:14;52969.66;;;-144.69;46.59
56658;BME280;42530;52.240;19.354;2022-09-17T06:00:40;52948.84;;;-144.69;46.66
56658;BME280;42530;52.240;19.354;2022-09-17T06:03:10;52977.97;;;-144.69;46.53
56658;BME280;42530;52.240;19.354;2022-09-17T06:05:36;52977.97;;;-144.69;47.70
56658;BME280;42530;52.240;19.354;2022-09-17T06:08:02;53048.72;;;-144.69;47.81
56658;BME280;42530;52.240;19.354;2022-09-17T06:10:27;52994.63;;;-144.69;47.44
56658;BME280;42530;52.240;19.354;2022-09-17T06:12:57;53007.09;;;-144.69;47.06
56658;BME280;42530;52.240;19.354;2022-09-17T06:15:23;53017.50;;;-144.69;47.67
56658;BME280;42530;52.240;19.354;2022-09-17T06:17:49;53011.28;;;-144.69;48.03
56658;BME280;42530;52.240;19.354;2022-09-17T06:20:15;53027.91;;;-144.69;47.95
56658;BME280;42530;52.240;19.354;2022-09-17T06:22:41;52986.31;;;-144.69;47.86
56658;BME280;42530;52.240;19.354;2022-09-17T06:25:06;53013.34;;;-144.69;47.79
56658;BME280;42530;52.240;19.354;2022-09-17T06:27:33;52988.38;;;-144.69;47.46
56658;BME280;42530;52.240;19.354;2022-09-17T06:29:59;52977.97;;;-144.69;48.04
56658;BME280;42530;52.240;19.354;2022-09-17T06:32:25;53015.44;;;-144.69;47.17
56658;BME280;42530;52.240;19.354;2022-09-17T06:34:51;53036.22;;;-144.69;47.39
56658;BME280;42530;52.240;19.354;2022-09-17T06:37:17;53057.03;;;-144.69;47.51
56658;BME280;42530;52.240;19.354;2022-09-17T06:39:42;53002.94;;;-144.69;47.47
56658;BME280;42530;52.240;19.354;2022-09-17T06:42:09;53002.94;;;-144.69;46.95
56658;BME280;42530;52.240;19.354;2022-09-17T06:44:34;52992.53;;;-144.69;47.50
56658;BME280;42530;52.240;19.354;2022-09-17T06:47:00;52996.72;;;-144.69;48.23
56658;BME280;42530;52.240;19.354;2022-09-17T06:49:25;52982.16;;;-144.69;48.04
56658;BME280;42530;52.240;19.354;2022-09-17T06:51:51;53000.88;;;-144.69;48.06
56658;BME280;42530;52.240;19.354;2022-09-17T06:54:17;53027.91;;;-144.69;47.70
56658;BME280;42530;52.240;19.354;2022-09-17T06:56:45;53002.94;;;-144.69;48.76
56658;BME280;42530;52.240;19.354;2022-09-17T06:59:12;52990.47;;;-144.69;48.80
56658;BME280;42530;52.240;19.354;2022-09-17T07:01:38;52980.06;;;-144.69;48.59
56658;BME280;42530;52.240;19.354;2022-09-17T07:04:04;52994.63;;;-144.69;48.80
56658;BME280;42530;52.240;19.354;2022-09-17T07:06:29;53013.34;;;-144.69;48.57
56658;BME280;42530;52.240;19.354;2022-09-17T07:08:55;53023.75;;;-144.69;48.20
56658;BME280;42530;52.240;19.354;2022-09-17T07:11:20;52984.22;;;-144.69;48.51
56658;BME280;42530;52.240;19.354;2022-09-17T07:13:46;53032.06;;;-144.69;48.13
56658;BME280;42530;52.240;19.354;2022-09-17T07:16:11;53044.56;;;-144.69;47.26
56658;BME280;42530;52.240;19.354;2022-09-17T07:18:37;53044.56;;;-144.69;46.63
56658;BME280;42530;52.240;19.354;2022-09-17T07:21:05;53042.47;;;-144.69;46.41
56658;BME280;42530;52.240;19.354;2022-09-17T07:23:32;53023.75;;;-144.69;47.01
56658;BME280;42530;52.240;19.354;2022-09-17T07:26:00;52982.16;;;-144.69;47.83
56658;BME280;42530;52.240;19.354;2022-09-17T07:28:27;53048.72;;;-144.69;47.43
56658;BME280;42530;52.240;19.354;2022-09-17T07:30:53;52988.38;;;-144.69;47.39
56658;BME280;42530;52.240;19.354;2022-09-17T07:33:22;53019.59;;;-144.69;47.09
56658;BME280;42530;52.240;19.354;2022-09-17T07:35:57;53011.28;;;-144.69;47.24
56658;BME280;42530;52.240;19.354;2022-09-17T07:38:23;53025.84;;;-144.69;47.63
56658;BME280;42530;52.240;19.354;2022-09-17T07:40:59;53015.44;;;-144.69;47.35
56658;BME280;42530;52.240;19.354;2022-09-17T07:43:27;52982.16;;;-144.69;46.58
56658;BME280;42530;52.240;19.354;2022-09-17T07:45:56;53025.84;;;-144.69;46.75
56658;BME280;42530;52.240;19.354;2022-09-17T07:48:21;53077.84;;;-144.69;46.58
56658;BME280;42530;52.240;19.354;2022-09-17T07:50:47;53017.50;;;-144.69;46.14
56658;BME280;42530;52.240;19.354;2022-09-17T07:53:13;53015.44;;;-144.69;46.57
56658;BME280;42530;52.240;19.354;2022-09-17T07:55:38;53013.34;;;-144.69;46.49
56658;BME280;42530;52.240;19.354;2022-09-17T07:58:04;53007.09;;;-144.69;46.38
56658;BME280;42530;52.240;19.354;2022-09-17T08:00:30;53034.16;;;-144.69;47.11
56658;BME280;42530;52.240;19.354;2022-09-17T08:02:56;52990.47;;;-144.69;46.74
56658;BME280;42530;52.240;19.354;2022-09-17T08:05:22;53030.00;;;-144.69;47.08
56658;BME280;42530;52.240;19.354;2022-09-17T08:07:52;53032.06;;;-144.69;46.56
56658;BME280;42530;52.240;19.354;2022-09-17T08:10:19;53048.72;;;-144.69;45.36
56658;BME280;42530;52.240;19.354;2022-09-17T08:12:49;53030.00;;;-144.69;44.26
56658;BME280;42530;52.240;19.354;2022-09-17T08:15:16;53027.91;;;-144.69;45.05
56658;BME280;42530;52.240;19.354;2022-09-17T08:17:45;53034.16;;;-144.69;44.86
56658;BME280;42530;52.240;19.354;2022-09-17T08:20:12;53015.44;;;-144.69;45.56
56658;BME280;42530;52.240;19.354;2022-09-17T08:22:38;53019.59;;;-144.69;45.32
56658;BME280;42530;52.240;19.354;2022-09-17T08:25:05;53038.31;;;-144.69;44.40
56658;BME280;42530;52.240;19.354;2022-09-17T08:27:31;53096.56;;;-144.69;43.39
56658;BME280;42530;52.240;19.354;2022-09-17T08:29:57;53104.88;;;-144.69;40.15
56658;BME280;42530;52.240;19.354;2022-09-17T08:32:23;53073.69;;;-144.69;37.18
56658;BME280;42530;52.240;19.354;2022-09-17T08:34:49;53007.09;;;-144.69;37.71
56658;BME280;42530;52.240;19.354;2022-09-17T08:37:14;53150.66;;;-144.69;36.26
56658;BME280;42530;52.240;19.354;2022-09-17T08:39:40;53052.88;;;-144.69;36.40
56658;BME280;42530;52.240;19.354;2022-09-17T08:42:36;53013.34;;;-144.69;37.19
56658;BME280;42530;52.240;19.354;2022-09-17T08:45:09;53011.28;;;-144.69;38.63
56658;BME280;42530;52.240;19.354;2022-09-17T08:47:40;53015.44;;;-144.69;39.57
56658;BME280;42530;52.240;19.354;2022-09-17T08:50:26;53040.41;;;-144.69;39.23
56658;BME280;42530;52.240;19.354;2022-09-17T08:55:53;53030.00;;;-144.69;38.10
56658;BME280;42530;52.240;19.354;2022-09-17T09:01:03;52988.38;;;-144.69;38.67
56658;BME280;42530;52.240;19.354;2022-09-17T09:04:00;53005.03;;;-144.69;39.94
56658;BME280;42530;52.240;19.354;2022-09-17T09:06:34;52992.53;;;-144.69;40.76
56658;BME280;42530;52.240;19.354;2022-09-17T09:09:08;52990.47;;;-144.69;40.60
56658;BME280;42530;52.240;19.354;2022-09-17T09:11:36;53032.06;;;-144.69;41.14
56658;BME280;42530;52.240;19.354;2022-09-17T09:14:26;52986.31;;;-144.69;40.83
56658;BME280;42530;52.240;19.354;2022-09-17T09:16:53;52998.78;;;-144.69;41.41
56658;BME280;42530;52.240;19.354;2022-09-17T09:19:25;53021.66;;;-144.69;40.65
56658;BME280;42530;52.240;19.354;2022-09-17T09:22:04;53048.72;;;-144.69;40.15
56658;BME280;42530;52.240;19.354;2022-09-17T09:24:57;53038.31;;;-144.69;38.86
56658;BME280;42530;52.240;19.354;2022-09-17T09:27:27;52982.16;;;-144.69;38.44
56658;BME280;42530;52.240;19.354;2022-09-17T09:35:00;53015.44;;;-144.69;38.62
56658;BME280;42530;52.240;19.354;2022-09-17T09:37:30;53002.94;;;-144.69;38.83
56658;BME280;42530;52.240;19.354;2022-09-17T09:42:46;53040.41;;;-144.69;37.68
56658;BME280;42530;52.240;19.354;2022-09-17T09:45:27;53032.06;;;-144.69;37.21
56658;BME280;42530;52.240;19.354;2022-09-17T09:48:20;52988.38;;;-144.69;36.60
56658;BME280;42530;52.240;19.354;2022-09-17T09:51:16;53054.97;;;-144.69;37.71
56658;BME280;42530;52.240;19.354;2022-09-17T09:59:28;53013.34;;;-144.69;37.94
56658;BME280;42530;52.240;19.354;2022-09-17T10:01:57;53007.09;;;-144.69;38.33
56658;BME280;42530;52.240;19.354;2022-09-17T10:04:25;53057.03;;;-144.69;37.94
56658;BME280;42530;52.240;19.354;2022-09-17T10:06:53;53011.28;;;-144.69;37.57
56658;BME280;42530;52.240;19.354;2022-09-17T10:09:20;53021.66;;;-144.69;37.47
56658;BME280;42530;52.240;19.354;2022-09-17T10:14:32;53019.59;;;-144.69;37.06
56658;BME280;42530;52.240;19.354;2022-09-17T10:17:13;53057.03;;;-144.69;36.23
56658;BME280;42530;52.240;19.354;2022-09-17T10:19:40;53036.22;;;-144.69;36.47
56658;BME280;42530;52.240;19.354;2022-09-17T10:24:47;53019.59;;;-144.69;37.66
56658;BME280;42530;52.240;19.354;2022-09-17T10:27:16;52986.31;;;-144.69;38.53
56658;BME280;42530;52.240;19.354;2022-09-17T10:29:43;52977.97;;;-144.69;38.83
56658;BME280;42530;52.240;19.354;2022-09-17T10:32:18;53027.91;;;-144.69;38.28
56658;BME280;42530;52.240;19.354;2022-09-17T10:35:04;52992.53;;;-144.69;38.85
56658;BME280;42530;52.240;19.354;2022-09-17T10:37:45;53009.19;;;-144.69;38.59
56658;BME280;42530;52.240;19.354;2022-09-17T10:42:46;53023.75;;;-144.69;38.94
56658;BME280;42530;52.240;19.354;2022-09-17T10:45:28;52980.06;;;-144.69;39.39
56658;BME280;42530;52.240;19.354;2022-09-17T10:47:55;53015.44;;;-144.69;39.42
56658;BME280;42530;52.240;19.354;2022-09-17T10:50:31;52994.63;;;-144.69;39.53
56658;BME280;42530;52.240;19.354;2022-09-17T10:53:05;53002.94;;;-144.69;39.63
56658;BME280;42530;52.240;19.354;2022-09-17T11:14:11;53009.19;;;-144.69;40.67
56658;BME280;42530;52.240;19.354;2022-09-17T11:16:59;53021.66;;;-144.69;41.21
56658;BME280;42530;52.240;19.354;2022-09-17T11:25:20;53023.75;;;-144.69;41.35
56658;BME280;42530;52.240;19.354;2022-09-17T11:31:24;53013.34;;;-144.69;41.34
56658;BME280;42530;52.240;19.354;2022-09-17T11:34:24;52998.78;;;-144.69;42.18
56658;BME280;42530;52.240;19.354;2022-09-17T11:37:17;53007.09;;;-144.69;43.12
56658;BME280;42530;52.240;19.354;2022-09-17T11:39:52;52986.31;;;-144.69;42.92
56658;BME280;42530;52.240;19.354;2022-09-17T11:45:14;52992.53;;;-144.69;42.78
56658;BME280;42530;52.240;19.354;2022-09-17T11:47:49;53036.22;;;-144.69;42.67
56658;BME280;42530;52.240;19.354;2022-09-17T11:50:41;53015.44;;;-144.69;42.08
56658;BME280;42530;52.240;19.354;2022-09-17T11:53:24;53023.75;;;-144.69;41.86
56658;BME280;42530;52.240;19.354;2022-09-17T11:55:56;53042.47;;;-144.69;41.03
56658;BME280;42530;52.240;19.354;2022-09-17T11:58:31;53023.75;;;-144.69;39.80
56658;BME280;42530;52.240;19.354;2022-09-17T12:01:11;53036.22;;;-144.69;39.03
56658;BME280;42530;52.240;19.354;2022-09-17T12:03:52;53032.06;;;-144.69;39.18
56658;BME280;42530;52.240;19.354;2022-09-17T12:06:27;53017.50;;;-144.69;38.51
56658;BME280;42530;52.240;19.354;2022-09-17T12:09:21;53048.72;;;-144.69;38.70
56658;BME280;42530;52.240;19.354;2022-09-17T12:14:42;53030.00;;;-144.69;38.88
56658;BME280;42530;52.240;19.354;2022-09-17T12:17:17;53046.63;;;-144.69;37.55
56658;BME280;42530;52.240;19.354;2022-09-17T12:19:48;53040.41;;;-144.69;36.14
56658;BME280;42530;52.240;19.354;2022-09-17T12:24:51;53050.78;;;-144.69;37.49
56658;BME280;42530;52.240;19.354;2022-09-17T12:27:32;52990.47;;;-144.69;36.55
56658;BME280;42530;52.240;19.354;2022-09-17T12:32:56;53027.91;;;-144.69;33.79
56658;BME280;42530;52.240;19.354;2022-09-17T12:35:49;53073.69;;;-144.69;34.46
56658;BME280;42530;52.240;19.354;2022-09-17T12:41:25;53030.00;;;-144.69;32.88
56658;BME280;42530;52.240;19.354;2022-09-17T12:46:35;53048.72;;;-144.69;29.94
56658;BME280;42530;52.240;19.354;2022-09-17T12:52:33;53082.00;;;-144.69;29.39
56658;BME280;42530;52.240;19.354;2022-09-17T12:55:09;53015.44;;;-144.69;29.03
56658;BME280;42530;52.240;19.354;2022-09-17T12:57:59;52994.63;;;-144.69;31.11
56658;BME280;42530;52.240;19.354;2022-09-17T13:00:36;53034.16;;;-144.69;31.00
56658;BME280;42530;52.240;19.354;2022-09-17T13:03:26;53069.53;;;-144.69;28.74
56658;BME280;42530;52.240;19.354;2022-09-17T13:14:36;53044.56;;;-144.69;23.89
56658;BME280;42530;52.240;19.354;2022-09-17T13:17:38;53042.47;;;-144.69;25.06
56658;BME280;42530;52.240;19.354;2022-09-17T13:20:16;53005.03;;;-144.69;24.67
56658;BME280;42530;52.240;19.354;2022-09-17T13:22:48;52998.78;;;-144.69;24.74
56658;BME280;42530;52.240;19.354;2022-09-17T13:25:16;53032.06;;;-144.69;24.69
56658;BME280;42530;52.240;19.354;2022-09-17T13:27:43;52955.09;;;-144.69;24.59
56658;BME280;42530;52.240;19.354;2022-09-17T13:30:13;52994.63;;;-144.69;27.73
56658;BME280;42530;52.240;19.354;2022-09-17T13:37:33;53019.59;;;-144.69;22.61
56658;BME280;42530;52.240;19.354;2022-09-17T13:40:00;53032.06;;;-144.69;24.04
56658;BME280;42530;52.240;19.354;2022-09-17T13:42:46;53034.16;;;-144.69;23.14
56658;BME280;42530;52.240;19.354;2022-09-17T13:45:17;53015.44;;;-144.69;24.39
56658;BME280;42530;52.240;19.354;2022-09-17T13:47:59;53032.06;;;-144.69;24.22
56658;BME280;42530;52.240;19.354;2022-09-17T13:50:46;53046.63;;;-144.69;24.31
56658;BME280;42530;52.240;19.354;2022-09-17T13:53:17;53040.41;;;-144.69;22.96
56658;BME280;42530;52.240;19.354;2022-09-17T14:00:50;52977.97;;;-144.69;28.71
56658;BME280;42530;52.240;19.354;2022-09-17T14:16:31;52961.34;;;-144.69;28.18
56658;BME280;42530;52.240;19.354;2022-09-17T14:30:28;52940.53;;;-144.69;31.88
56658;BME280;42530;52.240;19.354;2022-09-17T14:35:28;52961.34;;;-144.69;33.32
56658;BME280;42530;52.240;19.354;2022-09-17T14:38:02;52965.50;;;-144.69;33.39
56658;BME280;42530;52.240;19.354;2022-09-17T14:40:32;52973.81;;;-144.69;34.12
56658;BME280;42530;52.240;19.354;2022-09-17T14:42:59;52982.16;;;-144.69;34.38
56658;BME280;42530;52.240;19.354;2022-09-17T14:45:32;52988.38;;;-144.69;34.20
56658;BME280;42530;52.240;19.354;2022-09-17T14:48:17;52977.97;;;-144.69;34.30
56658;BME280;42530;52.240;19.354;2022-09-17T14:50:44;52965.50;;;-144.69;35.72
56658;BME280;42530;52.240;19.354;2022-09-17T14:53:18;52990.47;;;-144.69;35.59
56658;BME280;42530;52.240;19.354;2022-09-17T14:55:48;52980.06;;;-144.69;35.91
56658;BME280;42530;52.240;19.354;2022-09-17T14:58:29;53027.91;;;-144.69;35.51
56658;BME280;42530;52.240;19.354;2022-09-17T15:00:56;53011.28;;;-144.69;35.19
56658;BME280;42530;52.240;19.354;2022-09-17T15:03:22;53005.03;;;-144.69;34.46
56658;BME280;42530;52.240;19.354;2022-09-17T15:05:48;52980.06;;;-144.69;33.97
56658;BME280;42530;52.240;19.354;2022-09-17T15:08:22;52977.97;;;-144.69;32.62
56658;BME280;42530;52.240;19.354;2022-09-17T15:10:51;53011.28;;;-144.69;32.58
56658;BME280;42530;52.240;19.354;2022-09-17T15:16:43;53023.75;;;-144.69;32.82
56658;BME280;42530;52.240;19.354;2022-09-17T15:19:02;52982.16;;;-144.69;33.38
56658;BME280;42530;52.240;19.354;2022-09-17T15:23:58;52996.72;;;-144.69;33.22
56658;BME280;42530;52.240;19.354;2022-09-17T15:26:30;52994.63;;;-144.69;32.86